Tropical Cyclones
[Index]
Main Index Home Page Stock Weather Photos Extreme Storms Discussion Storm News and Storm Chasing Reports Tropical Cyclones / Hurricanes / Typhoons Weather Data and Links Wild Fires / Bushfires Weather Observation Techniques Weather Picture Catalogue Tornado Pictures and Reports Stock Video Footage and DVDs for sale
Season 1993-1994 Tropical Cyclone DAISY Track Map
Season 1993-1994 Summaries: [BoM-AU] [JTWC-AU] [JTWC-SIO] [JTWC-SPAC] [JTWC-SH]
<<- Previous TC | JTWC 1993-1994 Season | Next TC ->>

click for intensity scale information  Lat/long Grid: Show Hide

 Date Labels: Show Hide

Joint Typhoon Warning Centre Cyclone Data

Name: DAISY

08 Jan 1994 12:00 UTC to 16 Jan 1994 06:00 UTC

    date/time    lat    long     hPa   cat  kts
1994-01-08 12   16.2    57.6                  25          
1994-01-08 18   15.9    58.2                  25          
1994-01-09 00   15.6    58.8                  25          
1994-01-09 06   15.4    59.5                  25          
1994-01-09 12   15.5    60.3                  30          
1994-01-09 18   15.6    60.6                  30          
1994-01-10 00   15.8    60.7                  35          
1994-01-10 06   16.1    60.6                  35          
1994-01-10 12   16.3    60.3            1     40          
1994-01-10 18   16.4    59.8            1     45          
1994-01-11 00   16.5    59.3            1     50          
1994-01-11 06   16.7    58.5            1     50          
1994-01-11 12   16.8    57.6            1     45          
1994-01-11 18   16.9    56.7            1     45          
1994-01-12 00   17.0    55.9            2     55          
1994-01-12 06   17.2    55.2            2     65          
1994-01-12 12   17.4    54.1            2     70          
1994-01-12 18   17.8    52.9            3     80          
1994-01-13 00   18.1    51.7            3     85          
1994-01-13 06   18.8    50.4            3     90          
1994-01-13 12   19.4    49.4            3     95          
1994-01-13 18   19.9    48.4            3     80          
1994-01-14 00   20.3    47.5            2     60          
1994-01-14 06   20.7    46.7            1     40          
1994-01-14 12   21.1    46.0                  30          
1994-01-14 18   21.6    45.2                  25          
1994-01-15 00   22.0    44.4                  20          
1994-01-15 06   22.6    43.6                  20          
1994-01-15 12   22.7    43.2                  20          
1994-01-15 18   23.1    43.1                  20          
1994-01-16 00   23.6    43.3                  20          
1994-01-16 06   23.9    43.6                  20          
Winds are 1-min average.

Tropical cyclone tracks developed by Michael Bath using data from the Joint Typhoon Warning Centre Best Tracks and Google Maps.


[Australian Severe Weather index] [Copyright Notice] [Email Contacts] [Search This Site] [Privacy Policy]
Document: tropical_cyclone_daisy.htm Updated: 18 September 2016